createdAt,value
2017-10-25T00:02:24.757Z,8.23
2017-10-25T00:04:52.237Z,7.90
2017-10-25T00:07:19.709Z,7.50
2017-10-25T00:09:47.162Z,7.00
2017-10-25T00:12:14.678Z,6.07
2017-10-25T00:14:42.125Z,6.17
2017-10-25T00:17:09.608Z,6.57
2017-10-25T00:19:37.882Z,4.93
2017-10-25T00:22:05.332Z,5.87
2017-10-25T00:24:32.812Z,6.37
2017-10-25T00:27:01.074Z,5.30
2017-10-25T00:29:28.536Z,7.20
2017-10-25T00:31:55.986Z,8.00
2017-10-25T00:34:24.026Z,7.93
2017-10-25T00:36:51.489Z,9.07
2017-10-25T00:39:18.973Z,11.20
2017-10-25T00:41:46.469Z,10.63
2017-10-25T00:44:13.937Z,9.33
2017-10-25T00:46:41.417Z,11.80
2017-10-25T00:49:08.915Z,10.80
2017-10-25T00:51:36.383Z,11.03
2017-10-25T00:54:03.862Z,11.10
2017-10-25T00:56:31.440Z,9.17
2017-10-25T00:58:58.903Z,9.70
2017-10-25T01:01:26.393Z,9.83
2017-10-25T01:03:54.484Z,11.83
2017-10-25T01:06:22.709Z,9.30
2017-10-25T01:08:50.198Z,10.33
2017-10-25T01:11:17.649Z,9.53
2017-10-25T01:13:45.105Z,9.27
2017-10-25T01:16:12.581Z,9.47
2017-10-25T01:18:40.038Z,10.03
2017-10-25T01:21:07.489Z,9.30
2017-10-25T01:23:34.973Z,10.97
2017-10-25T01:26:02.437Z,9.83
2017-10-25T01:28:30.035Z,9.10
2017-10-25T01:30:57.493Z,10.83
2017-10-25T01:33:25.009Z,10.60
2017-10-25T01:35:52.497Z,7.10
2017-10-25T01:38:19.962Z,9.67
2017-10-25T01:40:47.421Z,8.10
2017-10-25T01:43:14.910Z,10.60
2017-10-25T01:45:42.365Z,10.00
2017-10-25T01:48:09.822Z,10.13
2017-10-25T01:50:37.330Z,9.70
2017-10-25T01:53:05.547Z,9.77
2017-10-25T01:55:33.017Z,9.90
2017-10-25T01:58:00.513Z,10.97
2017-10-25T02:00:28.734Z,11.43
2017-10-25T02:02:56.189Z,9.47
2017-10-25T02:05:23.677Z,9.47
2017-10-25T02:07:51.137Z,9.60
2017-10-25T02:10:18.593Z,10.33
2017-10-25T02:12:46.073Z,8.80
2017-10-25T02:15:14.296Z,9.97
2017-10-25T02:17:41.751Z,8.23
2017-10-25T02:20:09.284Z,9.00
2017-10-25T02:22:36.762Z,8.87
2017-10-25T02:25:04.222Z,8.80
2017-10-25T02:27:31.697Z,9.37
2017-10-25T02:29:59.170Z,8.03
2017-10-25T02:32:26.631Z,10.07
2017-10-25T02:34:54.126Z,9.00
2017-10-25T02:37:22.351Z,7.80
2017-10-25T02:39:49.802Z,9.47
2017-10-25T02:42:17.273Z,9.03
2017-10-25T02:44:44.725Z,9.50
2017-10-25T02:47:12.226Z,9.27
2017-10-25T02:49:39.781Z,10.17
2017-10-25T02:52:08.011Z,8.70
2017-10-25T02:54:36.300Z,11.30
2017-10-25T02:57:04.248Z,11.43
2017-10-25T02:59:31.966Z,9.73
2017-10-25T03:01:59.704Z,11.33
2017-10-25T03:04:27.678Z,11.30
2017-10-25T03:06:55.529Z,11.23
2017-10-25T03:09:22.990Z,10.97
2017-10-25T03:11:50.437Z,10.03
2017-10-25T03:14:17.911Z,12.30
2017-10-25T03:16:45.385Z,12.17
2017-10-25T03:19:12.844Z,12.00
2017-10-25T03:21:40.337Z,12.37
2017-10-25T03:24:07.797Z,11.00
2017-10-25T03:26:35.245Z,11.20
2017-10-25T03:29:03.505Z,12.13
2017-10-25T03:31:30.960Z,12.97
2017-10-25T03:33:58.417Z,12.17
2017-10-25T03:36:25.897Z,13.40
2017-10-25T03:38:53.368Z,12.03
2017-10-25T03:41:20.822Z,13.30
2017-10-25T03:43:48.305Z,14.90
2017-10-25T03:46:15.773Z,13.10
2017-10-25T03:48:43.310Z,14.27
2017-10-25T03:51:11.139Z,14.20
2017-10-25T03:53:38.655Z,17.17
2017-10-25T03:56:06.146Z,14.20
2017-10-25T03:58:33.629Z,15.53
2017-10-25T04:01:01.082Z,15.67
2017-10-25T04:03:28.556Z,13.87
2017-10-25T04:05:56.021Z,13.83
2017-10-25T04:08:23.509Z,16.13
2017-10-25T04:10:51.005Z,12.07
2017-10-25T04:13:18.466Z,15.50
2017-10-25T04:15:45.922Z,14.53
2017-10-25T04:18:13.406Z,15.00
2017-10-25T04:20:40.863Z,16.00
2017-10-25T04:23:08.322Z,15.43
2017-10-25T04:25:35.822Z,14.20
2017-10-25T04:28:03.277Z,15.33
2017-10-25T04:30:30.743Z,15.87
2017-10-25T04:32:58.229Z,16.20
2017-10-25T04:35:25.729Z,12.73
2017-10-25T04:37:53.206Z,15.50
2017-10-25T04:40:20.733Z,17.90
2017-10-25T04:42:48.214Z,16.37
2017-10-25T04:45:15.693Z,12.57
2017-10-25T04:47:43.178Z,15.30
2017-10-25T04:50:10.642Z,14.63
2017-10-25T04:52:38.113Z,15.17
2017-10-25T04:55:06.340Z,15.13
2017-10-25T04:57:33.816Z,15.40
2017-10-25T05:00:01.300Z,14.43
2017-10-25T05:02:28.906Z,14.23
2017-10-25T05:04:56.374Z,13.20
2017-10-25T05:07:23.837Z,16.97
2017-10-25T05:09:51.373Z,14.50
2017-10-25T05:12:18.841Z,14.60
2017-10-25T05:14:46.318Z,15.20
2017-10-25T05:17:13.780Z,13.27
2017-10-25T05:19:41.258Z,13.87
2017-10-25T05:22:08.734Z,12.60
2017-10-25T05:24:36.982Z,11.07
2017-10-25T05:27:04.450Z,13.33
2017-10-25T05:29:31.937Z,11.40
2017-10-25T05:31:59.405Z,10.10
2017-10-25T05:34:26.874Z,9.90
2017-10-25T05:36:54.350Z,9.27
2017-10-25T05:39:21.873Z,9.77
2017-10-25T05:41:49.332Z,12.37
2017-10-25T05:44:16.817Z,11.20
2017-10-25T05:46:44.285Z,11.77
2017-10-25T05:49:11.766Z,10.30
2017-10-25T05:51:39.225Z,8.20
2017-10-25T05:54:06.712Z,11.50
2017-10-25T05:56:34.177Z,12.40
2017-10-25T05:59:01.659Z,8.03
2017-10-25T06:01:30.569Z,7.40
2017-10-25T06:03:58.078Z,11.70
2017-10-25T06:06:26.305Z,12.00
2017-10-25T06:08:54.041Z,7.30
2017-10-25T06:11:21.512Z,11.47
2017-10-25T06:13:49.002Z,11.73
2017-10-25T06:16:16.488Z,14.00
2017-10-25T06:18:44.903Z,10.77
2017-10-25T06:21:12.366Z,13.23
2017-10-25T06:23:39.824Z,13.17
2017-10-25T06:26:07.316Z,11.73
2017-10-25T06:28:34.790Z,14.07
2017-10-25T06:31:02.324Z,9.33
2017-10-25T06:33:30.458Z,13.43
2017-10-25T06:35:57.908Z,8.37
2017-10-25T06:38:25.441Z,12.70
2017-10-25T06:40:52.900Z,14.10
2017-10-25T06:43:20.371Z,14.10
2017-10-25T06:45:48.606Z,10.20
2017-10-25T06:48:16.076Z,8.37
2017-10-25T06:50:43.561Z,12.07
2017-10-25T06:53:11.796Z,11.03
2017-10-25T06:55:39.258Z,12.93
2017-10-25T06:58:06.741Z,11.00
2017-10-25T07:00:34.237Z,11.97
2017-10-25T07:03:01.698Z,12.50
2017-10-25T07:05:29.182Z,10.57
2017-10-25T07:07:56.660Z,13.87
2017-10-25T07:10:24.121Z,11.97
2017-10-25T07:12:51.600Z,7.50
2017-10-25T07:15:19.851Z,10.10
2017-10-25T07:17:47.314Z,9.73
2017-10-25T07:20:14.798Z,12.23
2017-10-25T07:22:43.059Z,10.00
2017-10-25T07:25:10.512Z,12.80
2017-10-25T07:27:37.973Z,13.07
2017-10-25T07:30:05.449Z,8.40
2017-10-25T07:32:33.662Z,7.83
2017-10-25T07:35:02.387Z,12.63
2017-10-25T07:37:29.874Z,11.50
2017-10-25T07:39:57.325Z,11.70
2017-10-25T07:42:25.574Z,11.07
2017-10-25T07:44:53.090Z,13.40
2017-10-25T07:47:20.586Z,9.10
2017-10-25T07:49:48.053Z,13.10
2017-10-25T07:52:15.521Z,13.27
2017-10-25T07:54:43.005Z,13.33
2017-10-25T07:57:11.253Z,13.77
2017-10-25T07:59:38.787Z,12.63
2017-10-25T08:02:06.270Z,12.60
2017-10-25T08:04:33.734Z,13.33
2017-10-25T08:07:02.141Z,13.93
2017-10-25T08:09:30.370Z,14.23
2017-10-25T08:11:57.873Z,14.53
2017-10-25T08:14:26.106Z,13.70
2017-10-25T08:16:53.574Z,12.50
2017-10-25T08:19:21.051Z,5.60
2017-10-25T08:21:49.278Z,12.80
2017-10-25T08:24:16.753Z,8.20
2017-10-25T08:26:44.222Z,7.90
2017-10-25T08:29:11.757Z,7.60
2017-10-25T08:31:39.214Z,9.57
2017-10-25T08:34:06.705Z,7.90
2017-10-25T08:36:34.166Z,12.00
2017-10-25T08:39:02.560Z,11.40
2017-10-25T08:41:30.809Z,9.50
2017-10-25T08:43:58.265Z,11.67
2017-10-25T08:46:25.724Z,7.23
2017-10-25T08:48:53.222Z,13.47
2017-10-25T08:51:21.444Z,12.23
2017-10-25T08:53:48.890Z,8.50
2017-10-25T08:56:16.374Z,10.73
2017-10-25T08:58:44.701Z,8.60
2017-10-25T09:01:12.174Z,8.87
2017-10-25T09:03:39.664Z,11.60
2017-10-25T09:06:07.129Z,7.77
2017-10-25T09:08:35.305Z,9.40
2017-10-25T09:11:04.080Z,8.77
2017-10-25T09:13:31.619Z,11.90
2017-10-25T09:15:59.877Z,7.20
2017-10-25T09:18:27.536Z,9.30
2017-10-25T09:20:55.027Z,8.40
2017-10-25T09:23:22.504Z,7.60
2017-10-25T09:25:50.148Z,5.30
2017-10-25T09:28:17.846Z,7.10
2017-10-25T09:30:46.394Z,8.63
2017-10-25T09:33:14.014Z,10.07
2017-10-25T09:35:41.569Z,10.87
2017-10-25T09:38:09.057Z,8.10
2017-10-25T09:40:36.529Z,8.10
2017-10-25T09:43:04.254Z,10.87
2017-10-25T09:45:31.768Z,8.40
2017-10-25T09:48:00.030Z,9.23
2017-10-25T09:50:27.534Z,10.60
2017-10-25T09:52:55.184Z,7.77
2017-10-25T09:55:22.776Z,7.20
2017-10-25T09:57:50.287Z,11.50
2017-10-25T10:00:17.900Z,8.70
2017-10-25T10:02:47.071Z,8.10
2017-10-25T10:05:15.399Z,8.33
2017-10-25T10:07:43.122Z,7.60
2017-10-25T10:10:11.348Z,6.60
2017-10-25T10:12:38.853Z,9.57
2017-10-25T10:15:07.365Z,9.67
2017-10-25T10:17:35.045Z,11.73
2017-10-25T10:20:02.566Z,8.30
2017-10-25T10:22:30.236Z,7.37
2017-10-25T10:24:58.494Z,7.50
2017-10-25T10:27:26.186Z,9.80
2017-10-25T10:29:53.822Z,8.10
2017-10-25T10:32:21.457Z,6.00
2017-10-25T10:34:49.020Z,7.53
2017-10-25T10:37:16.602Z,6.80
2017-10-25T10:39:44.916Z,9.47
2017-10-25T10:42:12.901Z,6.23
2017-10-25T10:44:40.389Z,7.80
2017-10-25T10:47:07.849Z,5.97
2017-10-25T10:49:35.377Z,7.13
2017-10-25T10:52:02.834Z,5.07
2017-10-25T10:54:30.490Z,6.77
2017-10-25T10:56:57.965Z,7.13
2017-10-25T10:59:25.808Z,8.00
2017-10-25T11:01:53.671Z,6.93
2017-10-25T11:04:21.237Z,8.23
2017-10-25T11:06:48.753Z,6.80
2017-10-25T11:09:16.524Z,8.33
2017-10-25T11:11:44.049Z,6.87
2017-10-25T11:14:11.538Z,8.70
2017-10-25T11:16:39.010Z,7.40
2017-10-25T11:19:07.373Z,8.50
2017-10-25T11:21:36.869Z,10.57
2017-10-25T11:24:04.360Z,9.63
2017-10-25T11:26:32.675Z,10.73
2017-10-25T11:29:00.188Z,8.57
2017-10-25T11:31:28.440Z,10.07
2017-10-25T11:33:55.904Z,11.40
2017-10-25T11:36:23.819Z,8.13
2017-10-25T11:38:51.602Z,8.10
2017-10-25T11:41:19.224Z,10.10
2017-10-25T11:43:46.852Z,11.00
2017-10-25T11:46:14.524Z,7.90
2017-10-25T11:48:42.008Z,10.67
2017-10-25T11:51:09.551Z,12.40
2017-10-25T11:53:37.527Z,8.27
2017-10-25T11:56:05.180Z,8.07
2017-10-25T11:58:32.808Z,13.70
2017-10-25T12:01:00.326Z,12.93
2017-10-25T12:03:27.948Z,11.00
2017-10-25T12:05:55.623Z,15.47
2017-10-25T12:08:23.894Z,8.40
2017-10-25T12:10:51.409Z,15.40
2017-10-25T12:13:19.192Z,17.03
2017-10-25T12:15:46.701Z,9.93
2017-10-25T12:18:14.474Z,15.90
2017-10-25T12:20:42.983Z,6.50
2017-10-25T12:23:10.682Z,19.00
2017-10-25T12:25:38.352Z,16.87
2017-10-25T12:28:07.859Z,17.63
2017-10-25T12:30:37.279Z,16.13
2017-10-25T12:33:04.898Z,19.70
2017-10-25T12:35:32.659Z,18.33
2017-10-25T12:38:00.415Z,17.33
2017-10-25T12:40:28.055Z,12.70
2017-10-25T12:42:55.578Z,15.60
2017-10-25T12:45:23.201Z,18.80
2017-10-25T12:47:50.794Z,17.10
2017-10-25T12:50:18.473Z,17.27
2017-10-25T12:52:46.116Z,18.97
2017-10-25T12:55:14.505Z,17.03
2017-10-25T12:57:42.253Z,16.10
2017-10-25T13:00:09.926Z,16.73
2017-10-25T13:02:37.459Z,15.70
2017-10-25T13:05:05.140Z,16.17
2017-10-25T13:07:32.711Z,15.10
2017-10-25T13:10:00.210Z,17.33
2017-10-25T13:12:30.162Z,16.23
2017-10-25T13:15:02.478Z,16.08
2017-10-25T13:17:34.432Z,16.20
2017-10-25T13:22:50.501Z,14.67
2017-10-25T13:25:22.592Z,15.60
2017-10-25T13:27:51.574Z,13.50
2017-10-25T13:30:19.101Z,13.97
2017-10-25T13:32:49.957Z,14.90
2017-10-25T13:35:18.126Z,12.13
2017-10-25T13:37:45.594Z,15.32
2017-10-25T13:40:14.869Z,15.90
2017-10-25T13:42:42.329Z,15.63
2017-10-25T13:45:10.565Z,17.20
2017-10-25T13:47:38.046Z,14.53
2017-10-25T13:50:05.516Z,16.60
2017-10-25T13:52:33.015Z,19.23
2017-10-25T13:55:00.493Z,17.63
2017-10-25T13:57:27.961Z,12.93
2017-10-25T13:59:55.443Z,17.43
2017-10-25T14:02:23.677Z,21.67
2017-10-25T14:04:51.165Z,18.60
2017-10-25T14:07:18.657Z,19.27
2017-10-25T14:09:46.132Z,17.40
2017-10-25T14:12:14.018Z,20.67
2017-10-25T14:14:41.477Z,18.90
2017-10-25T14:17:08.962Z,17.57
2017-10-25T14:19:36.441Z,16.90
2017-10-25T14:22:04.698Z,19.87
2017-10-25T14:24:32.155Z,21.33
2017-10-25T14:27:11.490Z,17.20
2017-10-25T14:29:38.948Z,16.30
2017-10-25T14:32:06.410Z,17.77
2017-10-25T14:34:33.884Z,20.90
2017-10-25T14:37:01.375Z,20.50
2017-10-25T14:39:28.940Z,19.77
2017-10-25T14:41:56.410Z,18.50
2017-10-25T14:44:23.905Z,14.83
2017-10-25T14:46:51.370Z,17.77
2017-10-25T14:49:18.830Z,15.83
2017-10-25T14:51:46.310Z,16.93
2017-10-25T14:54:14.562Z,16.07
2017-10-25T14:56:42.028Z,17.03
2017-10-25T14:59:10.345Z,19.20
2017-10-25T15:01:37.826Z,20.03
2017-10-25T15:04:05.289Z,19.17
2017-10-25T15:06:32.766Z,20.40
2017-10-25T15:09:00.295Z,18.07
2017-10-25T15:11:27.774Z,18.50
2017-10-25T15:13:55.247Z,19.47
2017-10-25T15:16:22.732Z,18.57
2017-10-25T15:18:50.961Z,18.40
2017-10-25T15:21:18.418Z,16.60
2017-10-25T15:23:45.914Z,18.97
2017-10-25T15:26:13.366Z,17.23
2017-10-25T15:28:40.835Z,15.67
2017-10-25T15:31:08.352Z,17.67
2017-10-25T15:33:35.840Z,15.53
2017-10-25T15:36:03.304Z,13.30
2017-10-25T15:38:31.610Z,15.80
2017-10-25T15:40:59.104Z,15.60
2017-10-25T15:43:26.597Z,16.47
2017-10-25T15:45:54.067Z,17.10
2017-10-25T15:48:22.317Z,16.23
2017-10-25T15:50:49.777Z,16.80
2017-10-25T15:53:17.262Z,17.37
2017-10-25T15:55:44.754Z,19.10
2017-10-25T15:58:12.209Z,17.40
2017-10-25T16:00:40.951Z,16.92
2017-10-25T16:03:10.130Z,17.83
2017-10-25T16:05:37.606Z,20.60
2017-10-25T16:08:05.073Z,22.37
2017-10-25T16:10:32.569Z,20.60
2017-10-25T16:13:00.063Z,21.50
2017-10-25T16:15:27.517Z,22.30
2017-10-25T16:17:55.038Z,20.23
2017-10-25T16:20:22.509Z,22.10
2017-10-25T16:22:50.810Z,19.30
2017-10-25T16:25:18.367Z,22.70
2017-10-25T16:27:45.923Z,21.40
2017-10-25T16:30:13.610Z,23.10
2017-10-25T16:32:41.135Z,22.27
2017-10-25T16:35:08.630Z,25.90
2017-10-25T16:37:37.039Z,26.30
2017-10-25T16:40:04.664Z,23.57
2017-10-25T16:42:32.293Z,25.70
2017-10-25T16:44:59.863Z,20.12
2017-10-25T16:47:27.592Z,27.58
2017-10-25T16:49:55.296Z,26.60
2017-10-25T16:52:22.958Z,29.03
2017-10-25T16:54:50.697Z,29.47
2017-10-25T16:57:18.314Z,18.10
2017-10-25T16:59:45.806Z,29.53
2017-10-25T17:02:13.688Z,28.87
2017-10-25T17:04:41.321Z,31.00
2017-10-25T17:07:09.688Z,27.40
2017-10-25T17:09:37.320Z,28.67
2017-10-25T17:12:05.128Z,29.80
2017-10-25T17:14:32.689Z,30.97
2017-10-25T17:17:01.068Z,27.60
2017-10-25T17:19:28.692Z,29.27
2017-10-25T17:21:58.001Z,30.80
2017-10-25T17:24:25.477Z,31.17
2017-10-25T17:26:53.699Z,30.10
2017-10-25T17:29:22.484Z,31.27
2017-10-25T17:31:50.137Z,30.70
2017-10-25T17:34:17.845Z,31.67
2017-10-25T17:36:45.584Z,32.20
2017-10-25T17:39:13.033Z,32.97
2017-10-25T17:41:40.660Z,32.40
2017-10-25T17:44:09.173Z,32.03
2017-10-25T17:46:36.685Z,31.07
2017-10-25T17:49:04.142Z,33.73
2017-10-25T17:51:31.633Z,32.10
2017-10-25T17:53:59.154Z,31.17
2017-10-25T17:56:26.861Z,34.83
2017-10-25T17:58:54.451Z,33.80
2017-10-25T18:01:21.939Z,33.87
2017-10-25T18:03:49.467Z,36.77
2017-10-25T18:06:17.093Z,34.63
2017-10-25T18:08:44.540Z,32.37
2017-10-25T18:11:13.083Z,35.90
2017-10-25T18:13:40.717Z,36.17
2017-10-25T18:16:08.181Z,33.30
2017-10-25T18:18:35.692Z,35.50
2017-10-25T18:21:03.921Z,34.33
2017-10-25T18:23:31.375Z,36.30
2017-10-25T18:25:58.857Z,35.57
2017-10-25T18:28:26.339Z,33.67
2017-10-25T18:30:53.811Z,34.90
2017-10-25T18:33:22.055Z,36.97
2017-10-25T18:35:59.441Z,36.74
2017-10-25T18:38:30.236Z,37.55
2017-10-25T18:40:59.877Z,37.57
2017-10-25T18:43:27.447Z,35.50
2017-10-25T18:45:55.087Z,40.83
2017-10-25T18:48:22.723Z,36.57
2017-10-25T18:50:50.225Z,36.57
2017-10-25T18:53:17.720Z,39.40
2017-10-25T18:55:45.224Z,44.00
2017-10-25T18:58:13.484Z,43.08
2017-10-25T19:00:40.985Z,43.43
2017-10-25T19:03:08.450Z,44.40
2017-10-25T19:05:36.717Z,41.90
2017-10-25T19:08:04.188Z,42.47
2017-10-25T19:10:31.659Z,42.63
2017-10-25T19:12:59.413Z,40.10
2017-10-25T19:15:27.936Z,40.55
2017-10-25T19:17:55.854Z,42.87
2017-10-25T19:20:24.164Z,43.87
2017-10-25T19:22:52.389Z,42.80
2017-10-25T19:25:19.884Z,45.80
2017-10-25T19:27:47.332Z,44.30
2017-10-25T19:30:14.991Z,43.30
2017-10-25T19:32:44.551Z,45.17
2017-10-25T19:35:12.165Z,42.00
2017-10-25T19:37:39.663Z,44.70
2017-10-25T19:40:07.138Z,46.47
2017-10-25T19:42:34.609Z,44.30
2017-10-25T19:45:02.081Z,44.70
2017-10-25T19:47:29.852Z,43.20
2017-10-25T19:49:57.340Z,47.20
2017-10-25T19:52:25.569Z,45.30
2017-10-25T19:54:53.206Z,47.17
2017-10-25T19:57:20.967Z,46.80
2017-10-25T19:59:48.645Z,49.40
2017-10-25T20:02:16.158Z,47.73
2017-10-25T20:04:44.941Z,52.00
2017-10-25T20:07:12.425Z,44.60
2017-10-25T20:09:40.701Z,47.17
2017-10-25T20:12:08.955Z,53.87
2017-10-25T20:14:36.437Z,51.20
2017-10-25T20:17:04.685Z,45.70
2017-10-25T20:19:32.206Z,47.53
2017-10-25T20:21:59.670Z,44.90
2017-10-25T20:24:27.190Z,44.57
2017-10-25T20:26:54.685Z,45.43
2017-10-25T20:29:22.181Z,50.27
2017-10-25T20:31:49.644Z,51.10
2017-10-25T20:34:17.455Z,51.70
2017-10-25T20:36:46.734Z,42.50
2017-10-25T20:39:15.456Z,48.83
2017-10-25T20:41:42.954Z,47.17
2017-10-25T20:44:10.413Z,48.70
2017-10-25T20:46:37.906Z,58.37
2017-10-25T20:49:05.366Z,48.30
2017-10-25T20:51:32.822Z,51.73
2017-10-25T20:54:01.069Z,49.73
2017-10-25T20:56:28.524Z,55.43
2017-10-25T20:58:56.013Z,50.67
2017-10-25T21:01:24.230Z,47.00
2017-10-25T21:03:51.708Z,46.33
2017-10-25T21:06:19.169Z,50.27
2017-10-25T21:08:46.682Z,49.50
2017-10-25T21:11:15.081Z,56.27
2017-10-25T21:13:42.532Z,50.70
2017-10-25T21:16:10.030Z,52.77
2017-10-25T21:18:37.505Z,52.07
2017-10-25T21:21:05.737Z,52.10
2017-10-25T21:23:33.224Z,50.57
2017-10-25T21:26:00.685Z,51.83
2017-10-25T21:28:28.165Z,46.53
2017-10-25T21:30:56.397Z,49.50
2017-10-25T21:33:23.885Z,50.67
2017-10-25T21:35:51.350Z,48.70
2017-10-25T21:38:19.605Z,55.73
2017-10-25T21:40:47.080Z,58.57
2017-10-25T21:43:14.529Z,58.27
2017-10-25T21:45:42.013Z,51.63
2017-10-25T21:48:10.242Z,53.20
2017-10-25T21:50:37.716Z,53.37
2017-10-25T21:53:05.188Z,51.00
2017-10-25T21:55:33.534Z,52.50
2017-10-25T21:58:01.015Z,50.37
2017-10-25T22:00:28.509Z,51.37
2017-10-25T22:02:55.980Z,50.67
2017-10-25T22:05:23.455Z,52.87
2017-10-25T22:07:50.928Z,50.27
2017-10-25T22:10:18.440Z,50.60
2017-10-25T22:12:46.401Z,58.15
2017-10-25T22:15:14.631Z,49.40
2017-10-25T22:17:42.108Z,57.90
2017-10-25T22:20:09.566Z,52.20
2017-10-25T22:22:37.105Z,48.30
2017-10-25T22:25:05.335Z,47.20
2017-10-25T22:27:32.806Z,48.17
2017-10-25T22:30:00.285Z,47.67
2017-10-25T22:32:27.759Z,48.20
2017-10-25T22:34:55.238Z,51.17
2017-10-25T22:37:22.688Z,50.07
2017-10-25T22:39:50.209Z,52.93
2017-10-25T22:42:17.668Z,50.27
2017-10-25T22:44:45.133Z,51.97
2017-10-25T22:47:12.600Z,48.00
2017-10-25T22:49:40.052Z,48.90
2017-10-25T22:52:07.541Z,47.80
2017-10-25T22:54:35.037Z,49.40
2017-10-25T22:57:02.489Z,46.53
2017-10-25T22:59:30.860Z,49.60
2017-10-25T23:01:59.100Z,48.33
2017-10-25T23:04:26.589Z,46.33
2017-10-25T23:06:55.005Z,48.57
2017-10-25T23:09:22.667Z,48.80
2017-10-25T23:11:50.134Z,48.67
2017-10-25T23:14:18.438Z,51.60
2017-10-25T23:16:47.638Z,53.87
2017-10-25T23:19:15.172Z,49.03
2017-10-25T23:21:42.737Z,48.87
2017-10-25T23:24:10.197Z,46.43
2017-10-25T23:26:37.669Z,46.40
2017-10-25T23:29:05.202Z,49.50
2017-10-25T23:31:32.706Z,51.30
2017-10-25T23:34:00.172Z,51.00
2017-10-25T23:36:27.649Z,48.77
2017-10-25T23:38:55.917Z,46.50
2017-10-25T23:41:24.135Z,50.90
2017-10-25T23:43:51.624Z,48.20
2017-10-25T23:46:19.095Z,52.27
2017-10-25T23:48:46.574Z,49.50
2017-10-25T23:51:14.817Z,48.57
2017-10-25T23:53:42.293Z,49.67
2017-10-25T23:56:09.869Z,49.13
2017-10-25T23:58:37.317Z,48.10
